Airport ID:KTME
Update Time (UTC):16/10/2018 14:34
Wind Speed (Knots):12
Wind Direction (Magnetic):360
Temperature (°C):12.6
Dew Point (°C):12.5
Humidity (%):99.6
Altimeter (inHg):30.13
Density Altitude (Feet):
Visibility (Miles):4
Clouds (Hundreds of feet):OVC007
Present Weather:BR
METAR:METAR KTME 161430Z AUTO 36011KT 4SM BR OVC007 13/13 A3013 RMK AO2

The data displayed is for advisory purposes only and is not to be used for flight planning or operations.

This page is not automatically refreshed. Reload the page to see current data.